sensor_id;sensor_type;location;lat;lon;timestamp;P1;durP1;ratioP1;P2;durP2;ratioP2
22094;SDS011;24083;55.670;37.568;2023-06-26T00:04:36;18.98;;;8.68;;
22094;SDS011;24083;55.670;37.568;2023-06-26T00:07:06;18.35;;;8.75;;
22094;SDS011;24083;55.670;37.568;2023-06-26T00:12:25;15.35;;;8.77;;
22094;SDS011;24083;55.670;37.568;2023-06-26T00:14:51;16.80;;;8.45;;
22094;SDS011;24083;55.670;37.568;2023-06-26T00:17:18;14.38;;;8.52;;
22094;SDS011;24083;55.670;37.568;2023-06-26T00:26:15;13.40;;;8.90;;
22094;SDS011;24083;55.670;37.568;2023-06-26T00:28:42;17.02;;;7.93;;
22094;SDS011;24083;55.670;37.568;2023-06-26T00:31:26;15.50;;;8.25;;
22094;SDS011;24083;55.670;37.568;2023-06-26T00:36:48;19.05;;;8.77;;
22094;SDS011;24083;55.670;37.568;2023-06-26T00:39:14;13.07;;;8.85;;
22094;SDS011;24083;55.670;37.568;2023-06-26T00:41:51;17.15;;;8.65;;
22094;SDS011;24083;55.670;37.568;2023-06-26T00:44:21;14.93;;;8.60;;
22094;SDS011;24083;55.670;37.568;2023-06-26T00:49:26;15.27;;;8.43;;
22094;SDS011;24083;55.670;37.568;2023-06-26T01:00:48;17.33;;;9.27;;
22094;SDS011;24083;55.670;37.568;2023-06-26T01:11:59;17.42;;;9.43;;
22094;SDS011;24083;55.670;37.568;2023-06-26T01:20:14;19.58;;;9.05;;
22094;SDS011;24083;55.670;37.568;2023-06-26T01:23:05;15.90;;;9.27;;
22094;SDS011;24083;55.670;37.568;2023-06-26T01:28:48;18.17;;;9.32;;
22094;SDS011;24083;55.670;37.568;2023-06-26T01:31:16;21.48;;;10.27;;
22094;SDS011;24083;55.670;37.568;2023-06-26T01:33:46;14.25;;;9.80;;
22094;SDS011;24083;55.670;37.568;2023-06-26T01:36:15;25.42;;;9.73;;
22094;SDS011;24083;55.670;37.568;2023-06-26T01:38:41;17.17;;;10.43;;
22094;SDS011;24083;55.670;37.568;2023-06-26T01:41:09;18.92;;;10.15;;
22094;SDS011;24083;55.670;37.568;2023-06-26T01:46:58;21.15;;;11.50;;
22094;SDS011;24083;55.670;37.568;2023-06-26T02:01:49;27.65;;;11.68;;
22094;SDS011;24083;55.670;37.568;2023-06-26T02:04:19;24.00;;;11.95;;
22094;SDS011;24083;55.670;37.568;2023-06-26T02:09:17;23.75;;;10.90;;
22094;SDS011;24083;55.670;37.568;2023-06-26T02:11:50;23.17;;;11.40;;
22094;SDS011;24083;55.670;37.568;2023-06-26T02:14:20;23.85;;;11.18;;
22094;SDS011;24083;55.670;37.568;2023-06-26T02:19:19;27.00;;;11.48;;
22094;SDS011;24083;55.670;37.568;2023-06-26T02:22:11;20.23;;;11.48;;
22094;SDS011;24083;55.670;37.568;2023-06-26T02:24:44;24.67;;;11.77;;
22094;SDS011;24083;55.670;37.568;2023-06-26T02:27:15;26.90;;;11.73;;
22094;SDS011;24083;55.670;37.568;2023-06-26T02:29:45;23.98;;;11.93;;
22094;SDS011;24083;55.670;37.568;2023-06-26T02:32:14;20.05;;;11.75;;
22094;SDS011;24083;55.670;37.568;2023-06-26T02:37:34;22.50;;;13.13;;
22094;SDS011;24083;55.670;37.568;2023-06-26T02:40:01;23.98;;;12.60;;
22094;SDS011;24083;55.670;37.568;2023-06-26T02:44:59;30.45;;;13.35;;
22094;SDS011;24083;55.670;37.568;2023-06-26T02:47:35;27.70;;;13.13;;
22094;SDS011;24083;55.670;37.568;2023-06-26T02:50:06;20.05;;;12.65;;
22094;SDS011;24083;55.670;37.568;2023-06-26T02:52:48;27.92;;;13.10;;
22094;SDS011;24083;55.670;37.568;2023-06-26T02:55:19;23.02;;;13.05;;
22094;SDS011;24083;55.670;37.568;2023-06-26T02:57:47;23.65;;;13.25;;
22094;SDS011;24083;55.670;37.568;2023-06-26T03:00:17;24.88;;;13.98;;
22094;SDS011;24083;55.670;37.568;2023-06-26T03:02:56;23.98;;;13.98;;
22094;SDS011;24083;55.670;37.568;2023-06-26T03:05:23;24.38;;;13.77;;
22094;SDS011;24083;55.670;37.568;2023-06-26T03:07:50;24.27;;;14.52;;
22094;SDS011;24083;55.670;37.568;2023-06-26T03:10:18;22.73;;;13.32;;
22094;SDS011;24083;55.670;37.568;2023-06-26T03:15:17;25.20;;;14.38;;
22094;SDS011;24083;55.670;37.568;2023-06-26T03:17:45;23.50;;;13.82;;
22094;SDS011;24083;55.670;37.568;2023-06-26T03:20:18;27.40;;;14.73;;
22094;SDS011;24083;55.670;37.568;2023-06-26T03:25:21;23.83;;;14.23;;
22094;SDS011;24083;55.670;37.568;2023-06-26T03:27:48;22.95;;;14.02;;
22094;SDS011;24083;55.670;37.568;2023-06-26T03:30:15;27.27;;;14.95;;
22094;SDS011;24083;55.670;37.568;2023-06-26T03:35:14;22.77;;;13.63;;
22094;SDS011;24083;55.670;37.568;2023-06-26T03:37:40;23.50;;;13.20;;
22094;SDS011;24083;55.670;37.568;2023-06-26T03:42:38;18.63;;;13.35;;
22094;SDS011;24083;55.670;37.568;2023-06-26T03:47:35;26.48;;;13.45;;
22094;SDS011;24083;55.670;37.568;2023-06-26T03:50:03;22.65;;;13.30;;
22094;SDS011;24083;55.670;37.568;2023-06-26T03:52:30;27.80;;;13.30;;
22094;SDS011;24083;55.670;37.568;2023-06-26T03:57:39;21.42;;;12.98;;
22094;SDS011;24083;55.670;37.568;2023-06-26T04:00:06;19.92;;;13.60;;
22094;SDS011;24083;55.670;37.568;2023-06-26T04:02:44;18.30;;;13.00;;
22094;SDS011;24083;55.670;37.568;2023-06-26T04:05:13;19.55;;;13.52;;
22094;SDS011;24083;55.670;37.568;2023-06-26T04:07:40;23.40;;;13.73;;
22094;SDS011;24083;55.670;37.568;2023-06-26T04:10:06;27.73;;;14.23;;
22094;SDS011;24083;55.670;37.568;2023-06-26T04:12:34;24.67;;;14.82;;
22094;SDS011;24083;55.670;37.568;2023-06-26T04:15:03;28.88;;;14.52;;
22094;SDS011;24083;55.670;37.568;2023-06-26T04:20:38;22.95;;;14.48;;
22094;SDS011;24083;55.670;37.568;2023-06-26T04:23:06;27.17;;;14.38;;
22094;SDS011;24083;55.670;37.568;2023-06-26T04:28:10;29.08;;;15.10;;
22094;SDS011;24083;55.670;37.568;2023-06-26T04:33:07;40.95;;;14.98;;
22094;SDS011;24083;55.670;37.568;2023-06-26T04:35:37;39.53;;;16.33;;
22094;SDS011;24083;55.670;37.568;2023-06-26T04:38:07;32.47;;;16.35;;
22094;SDS011;24083;55.670;37.568;2023-06-26T04:40:53;25.33;;;14.35;;
22094;SDS011;24083;55.670;37.568;2023-06-26T04:43:19;26.08;;;15.00;;
22094;SDS011;24083;55.670;37.568;2023-06-26T04:45:47;38.78;;;15.35;;
22094;SDS011;24083;55.670;37.568;2023-06-26T04:48:16;32.85;;;14.85;;
22094;SDS011;24083;55.670;37.568;2023-06-26T04:50:45;31.02;;;15.05;;
22094;SDS011;24083;55.670;37.568;2023-06-26T04:53:21;26.98;;;13.40;;
22094;SDS011;24083;55.670;37.568;2023-06-26T04:55:54;23.08;;;13.23;;
22094;SDS011;24083;55.670;37.568;2023-06-26T04:58:21;23.67;;;12.65;;
22094;SDS011;24083;55.670;37.568;2023-06-26T05:00:47;22.63;;;12.35;;
22094;SDS011;24083;55.670;37.568;2023-06-26T05:03:14;26.60;;;11.70;;
22094;SDS011;24083;55.670;37.568;2023-06-26T05:08:17;19.65;;;11.98;;
22094;SDS011;24083;55.670;37.568;2023-06-26T05:10:44;17.20;;;11.35;;
22094;SDS011;24083;55.670;37.568;2023-06-26T05:13:12;21.30;;;10.98;;
22094;SDS011;24083;55.670;37.568;2023-06-26T05:15:44;17.70;;;9.50;;
22094;SDS011;24083;55.670;37.568;2023-06-26T05:18:11;15.82;;;10.15;;
22094;SDS011;24083;55.670;37.568;2023-06-26T05:20:37;15.07;;;8.73;;
22094;SDS011;24083;55.670;37.568;2023-06-26T05:23:05;13.88;;;7.97;;
22094;SDS011;24083;55.670;37.568;2023-06-26T05:28:02;11.52;;;8.52;;
22094;SDS011;24083;55.670;37.568;2023-06-26T05:30:32;18.33;;;8.88;;
22094;SDS011;24083;55.670;37.568;2023-06-26T05:33:01;16.60;;;8.60;;
22094;SDS011;24083;55.670;37.568;2023-06-26T05:35:28;13.68;;;8.43;;
22094;SDS011;24083;55.670;37.568;2023-06-26T05:37:57;13.43;;;8.63;;
22094;SDS011;24083;55.670;37.568;2023-06-26T05:40:24;18.52;;;9.23;;
22094;SDS011;24083;55.670;37.568;2023-06-26T05:42:53;13.45;;;8.98;;
22094;SDS011;24083;55.670;37.568;2023-06-26T05:47:45;12.82;;;8.95;;
22094;SDS011;24083;55.670;37.568;2023-06-26T05:52:43;15.15;;;8.13;;
22094;SDS011;24083;55.670;37.568;2023-06-26T05:55:18;17.63;;;7.82;;
22094;SDS011;24083;55.670;37.568;2023-06-26T05:57:46;15.40;;;8.30;;
22094;SDS011;24083;55.670;37.568;2023-06-26T06:00:12;11.95;;;7.72;;
22094;SDS011;24083;55.670;37.568;2023-06-26T06:02:40;12.75;;;7.80;;
22094;SDS011;24083;55.670;37.568;2023-06-26T06:05:07;12.60;;;7.63;;
22094;SDS011;24083;55.670;37.568;2023-06-26T06:07:35;15.02;;;8.23;;
22094;SDS011;24083;55.670;37.568;2023-06-26T06:12:35;14.90;;;7.55;;
22094;SDS011;24083;55.670;37.568;2023-06-26T06:17:37;10.98;;;6.10;;
22094;SDS011;24083;55.670;37.568;2023-06-26T06:20:05;9.75;;;5.80;;
22094;SDS011;24083;55.670;37.568;2023-06-26T06:22:33;10.93;;;5.57;;
22094;SDS011;24083;55.670;37.568;2023-06-26T06:24:59;8.13;;;5.35;;
22094;SDS011;24083;55.670;37.568;2023-06-26T06:27:28;11.57;;;5.40;;
22094;SDS011;24083;55.670;37.568;2023-06-26T06:29:53;10.35;;;5.20;;
22094;SDS011;24083;55.670;37.568;2023-06-26T06:32:19;7.43;;;5.32;;
22094;SDS011;24083;55.670;37.568;2023-06-26T06:34:46;6.47;;;5.30;;
22094;SDS011;24083;55.670;37.568;2023-06-26T06:37:14;8.35;;;4.97;;
22094;SDS011;24083;55.670;37.568;2023-06-26T06:39:40;7.63;;;4.55;;
22094;SDS011;24083;55.670;37.568;2023-06-26T06:42:07;9.80;;;4.63;;
22094;SDS011;24083;55.670;37.568;2023-06-26T06:44:35;6.03;;;4.90;;
22094;SDS011;24083;55.670;37.568;2023-06-26T06:47:01;7.18;;;5.10;;
22094;SDS011;24083;55.670;37.568;2023-06-26T06:49:31;6.85;;;4.95;;
22094;SDS011;24083;55.670;37.568;2023-06-26T06:51:59;9.02;;;4.80;;
22094;SDS011;24083;55.670;37.568;2023-06-26T06:54:25;5.28;;;4.50;;
22094;SDS011;24083;55.670;37.568;2023-06-26T06:56:58;5.82;;;4.88;;
22094;SDS011;24083;55.670;37.568;2023-06-26T06:59:25;6.25;;;5.00;;
22094;SDS011;24083;55.670;37.568;2023-06-26T07:01:52;7.07;;;4.95;;
22094;SDS011;24083;55.670;37.568;2023-06-26T07:04:26;6.88;;;4.72;;
22094;SDS011;24083;55.670;37.568;2023-06-26T07:06:52;7.88;;;4.80;;
22094;SDS011;24083;55.670;37.568;2023-06-26T07:09:23;7.72;;;4.70;;
22094;SDS011;24083;55.670;37.568;2023-06-26T07:11:49;5.95;;;4.28;;
22094;SDS011;24083;55.670;37.568;2023-06-26T07:14:15;5.40;;;4.72;;
22094;SDS011;24083;55.670;37.568;2023-06-26T07:16:42;9.85;;;5.10;;
22094;SDS011;24083;55.670;37.568;2023-06-26T07:19:08;9.35;;;5.35;;
22094;SDS011;24083;55.670;37.568;2023-06-26T07:21:38;6.75;;;4.97;;
22094;SDS011;24083;55.670;37.568;2023-06-26T07:26:39;8.02;;;4.80;;
22094;SDS011;24083;55.670;37.568;2023-06-26T07:31:43;8.35;;;4.97;;
22094;SDS011;24083;55.670;37.568;2023-06-26T07:34:10;6.95;;;5.28;;
22094;SDS011;24083;55.670;37.568;2023-06-26T07:36:43;12.07;;;5.80;;
22094;SDS011;24083;55.670;37.568;2023-06-26T07:39:09;7.20;;;4.85;;
22094;SDS011;24083;55.670;37.568;2023-06-26T07:41:37;8.82;;;5.00;;
22094;SDS011;24083;55.670;37.568;2023-06-26T07:44:04;9.25;;;5.20;;
22094;SDS011;24083;55.670;37.568;2023-06-26T07:46:34;6.03;;;4.97;;
22094;SDS011;24083;55.670;37.568;2023-06-26T07:49:00;10.02;;;5.55;;
22094;SDS011;24083;55.670;37.568;2023-06-26T07:51:31;7.55;;;5.55;;
22094;SDS011;24083;55.670;37.568;2023-06-26T07:53:58;7.88;;;5.57;;
22094;SDS011;24083;55.670;37.568;2023-06-26T07:56:26;8.43;;;5.33;;
22094;SDS011;24083;55.670;37.568;2023-06-26T07:58:53;9.35;;;5.20;;
22094;SDS011;24083;55.670;37.568;2023-06-26T08:01:23;7.13;;;4.97;;
22094;SDS011;24083;55.670;37.568;2023-06-26T08:03:50;9.70;;;5.30;;
22094;SDS011;24083;55.670;37.568;2023-06-26T08:06:18;7.90;;;5.18;;
22094;SDS011;24083;55.670;37.568;2023-06-26T08:08:48;8.18;;;5.20;;
22094;SDS011;24083;55.670;37.568;2023-06-26T08:11:16;7.15;;;5.03;;
22094;SDS011;24083;55.670;37.568;2023-06-26T08:16:08;7.75;;;5.20;;
22094;SDS011;24083;55.670;37.568;2023-06-26T08:18:35;7.40;;;4.80;;
22094;SDS011;24083;55.670;37.568;2023-06-26T08:21:01;6.10;;;5.07;;
22094;SDS011;24083;55.670;37.568;2023-06-26T08:23:27;7.55;;;5.00;;
22094;SDS011;24083;55.670;37.568;2023-06-26T08:25:53;9.50;;;4.80;;
22094;SDS011;24083;55.670;37.568;2023-06-26T08:28:20;7.15;;;4.55;;
22094;SDS011;24083;55.670;37.568;2023-06-26T08:30:47;6.32;;;4.93;;
22094;SDS011;24083;55.670;37.568;2023-06-26T08:33:15;7.70;;;5.10;;
22094;SDS011;24083;55.670;37.568;2023-06-26T08:35:41;9.73;;;5.55;;
22094;SDS011;24083;55.670;37.568;2023-06-26T08:38:07;10.70;;;6.93;;
22094;SDS011;24083;55.670;37.568;2023-06-26T08:40:37;9.60;;;5.60;;
22094;SDS011;24083;55.670;37.568;2023-06-26T08:43:06;8.20;;;5.13;;
22094;SDS011;24083;55.670;37.568;2023-06-26T08:48:26;7.93;;;5.40;;
22094;SDS011;24083;55.670;37.568;2023-06-26T08:50:57;7.75;;;5.45;;
22094;SDS011;24083;55.670;37.568;2023-06-26T08:53:33;9.05;;;5.47;;
22094;SDS011;24083;55.670;37.568;2023-06-26T08:56:22;7.28;;;5.30;;
22094;SDS011;24083;55.670;37.568;2023-06-26T08:58:49;6.15;;;5.53;;
22094;SDS011;24083;55.670;37.568;2023-06-26T09:01:25;7.85;;;5.38;;
22094;SDS011;24083;55.670;37.568;2023-06-26T09:03:53;10.15;;;5.35;;
22094;SDS011;24083;55.670;37.568;2023-06-26T09:06:21;7.97;;;5.13;;
22094;SDS011;24083;55.670;37.568;2023-06-26T09:08:47;5.68;;;5.03;;
22094;SDS011;24083;55.670;37.568;2023-06-26T09:11:14;6.93;;;4.90;;
22094;SDS011;24083;55.670;37.568;2023-06-26T09:13:42;7.53;;;5.40;;
22094;SDS011;24083;55.670;37.568;2023-06-26T09:16:09;6.38;;;5.00;;
22094;SDS011;24083;55.670;37.568;2023-06-26T09:18:35;5.65;;;5.05;;
22094;SDS011;24083;55.670;37.568;2023-06-26T09:23:56;8.15;;;5.50;;
22094;SDS011;24083;55.670;37.568;2023-06-26T09:26:24;7.47;;;5.10;;
22094;SDS011;24083;55.670;37.568;2023-06-26T09:31:24;7.93;;;5.05;;
22094;SDS011;24083;55.670;37.568;2023-06-26T09:33:55;6.85;;;5.25;;
22094;SDS011;24083;55.670;37.568;2023-06-26T09:36:29;6.22;;;5.35;;
22094;SDS011;24083;55.670;37.568;2023-06-26T13:48:14;6.32;;;4.68;;
22094;SDS011;24083;55.670;37.568;2023-06-26T15:13:52;5.38;;;3.72;;
22094;SDS011;24083;55.670;37.568;2023-06-26T15:39:45;6.45;;;3.67;;
22094;SDS011;24083;55.670;37.568;2023-06-26T15:50:35;11.75;;;3.90;;
22094;SDS011;24083;55.670;37.568;2023-06-26T15:53:55;11.32;;;3.80;;
22094;SDS011;24083;55.670;37.568;2023-06-26T15:57:33;13.38;;;4.07;;
22094;SDS011;24083;55.670;37.568;2023-06-26T19:15:58;7.25;;;4.88;;
22094;SDS011;24083;55.670;37.568;2023-06-26T19:19:00;10.00;;;4.95;;
22094;SDS011;24083;55.670;37.568;2023-06-26T19:24:16;9.15;;;4.85;;
22094;SDS011;24083;55.670;37.568;2023-06-26T19:30:34;18.00;;;5.25;;
22094;SDS011;24083;55.670;37.568;2023-06-26T20:02:17;7.90;;;4.78;;
22094;SDS011;24083;55.670;37.568;2023-06-26T20:05:06;14.10;;;5.60;;
22094;SDS011;24083;55.670;37.568;2023-06-26T20:09:20;8.27;;;5.13;;
22094;SDS011;24083;55.670;37.568;2023-06-26T20:43:39;11.80;;;5.70;;
22094;SDS011;24083;55.670;37.568;2023-06-26T20:46:48;11.70;;;6.40;;
22094;SDS011;24083;55.670;37.568;2023-06-26T21:16:48;4.18;;;2.75;;
22094;SDS011;24083;55.670;37.568;2023-06-26T21:25:33;2.72;;;2.20;;
22094;SDS011;24083;55.670;37.568;2023-06-26T21:28:30;2.78;;;2.30;;
22094;SDS011;24083;55.670;37.568;2023-06-26T21:31:16;3.10;;;2.80;;
22094;SDS011;24083;55.670;37.568;2023-06-26T21:33:56;4.88;;;2.60;;
22094;SDS011;24083;55.670;37.568;2023-06-26T22:04:18;5.57;;;3.47;;
22094;SDS011;24083;55.670;37.568;2023-06-26T22:14:15;6.45;;;3.55;;
22094;SDS011;24083;55.670;37.568;2023-06-26T22:16:44;6.95;;;3.38;;
22094;SDS011;24083;55.670;37.568;2023-06-26T22:25:10;8.60;;;3.72;;
22094;SDS011;24083;55.670;37.568;2023-06-26T22:27:43;8.00;;;3.20;;
22094;SDS011;24083;55.670;37.568;2023-06-26T22:30:14;4.80;;;3.45;;
22094;SDS011;24083;55.670;37.568;2023-06-26T22:32:44;7.07;;;3.70;;
22094;SDS011;24083;55.670;37.568;2023-06-26T22:35:12;5.55;;;3.67;;
22094;SDS011;24083;55.670;37.568;2023-06-26T22:37:48;10.32;;;3.78;;
22094;SDS011;24083;55.670;37.568;2023-06-26T22:40:17;7.45;;;3.45;;
22094;SDS011;24083;55.670;37.568;2023-06-26T22:42:49;7.37;;;3.67;;
22094;SDS011;24083;55.670;37.568;2023-06-26T22:45:19;7.35;;;3.97;;
22094;SDS011;24083;55.670;37.568;2023-06-26T22:47:48;7.78;;;4.13;;
22094;SDS011;24083;55.670;37.568;2023-06-26T22:50:15;9.60;;;3.95;;
22094;SDS011;24083;55.670;37.568;2023-06-26T22:52:47;9.80;;;3.73;;
22094;SDS011;24083;55.670;37.568;2023-06-26T22:55:19;11.38;;;3.80;;
22094;SDS011;24083;55.670;37.568;2023-06-26T23:00:38;9.82;;;4.38;;
22094;SDS011;24083;55.670;37.568;2023-06-26T23:21:33;11.53;;;4.57;;
22094;SDS011;24083;55.670;37.568;2023-06-26T23:29:15;14.63;;;5.40;;
22094;SDS011;24083;55.670;37.568;2023-06-26T23:36:29;10.43;;;5.20;;
22094;SDS011;24083;55.670;37.568;2023-06-26T23:39:41;11.73;;;4.80;;
22094;SDS011;24083;55.670;37.568;2023-06-26T23:42:39;14.20;;;5.30;;
